sensor_id;sensor_type;location;lat;lon;timestamp;temperature;humidity
33903;DHT22;20194;50.950;5.346;2023-09-19T00:00:23;16.90;83.20
33903;DHT22;20194;50.950;5.346;2023-09-19T00:02:58;17.00;84.10
33903;DHT22;20194;50.950;5.346;2023-09-19T00:05:27;16.90;84.00
33903;DHT22;20194;50.950;5.346;2023-09-19T00:07:54;16.90;82.80
33903;DHT22;20194;50.950;5.346;2023-09-19T00:10:27;16.90;83.80
33903;DHT22;20194;50.950;5.346;2023-09-19T00:12:57;16.70;85.30
33903;DHT22;20194;50.950;5.346;2023-09-19T00:15:26;16.80;86.10
33903;DHT22;20194;50.950;5.346;2023-09-19T00:17:55;16.80;84.40
33903;DHT22;20194;50.950;5.346;2023-09-19T00:20:22;16.80;84.80
33903;DHT22;20194;50.950;5.346;2023-09-19T00:22:49;16.80;84.50
33903;DHT22;20194;50.950;5.346;2023-09-19T00:25:19;16.70;84.50
33903;DHT22;20194;50.950;5.346;2023-09-19T00:27:46;16.60;85.80
33903;DHT22;20194;50.950;5.346;2023-09-19T00:30:17;16.60;86.40
33903;DHT22;20194;50.950;5.346;2023-09-19T00:32:50;16.60;86.40
33903;DHT22;20194;50.950;5.346;2023-09-19T00:35:22;16.70;85.00
33903;DHT22;20194;50.950;5.346;2023-09-19T00:37:52;16.70;85.50
33903;DHT22;20194;50.950;5.346;2023-09-19T00:40:17;16.60;86.00
33903;DHT22;20194;50.950;5.346;2023-09-19T00:42:44;16.60;86.30
33903;DHT22;20194;50.950;5.346;2023-09-19T00:45:12;16.60;85.70
33903;DHT22;20194;50.950;5.346;2023-09-19T00:47:39;16.60;85.30
33903;DHT22;20194;50.950;5.346;2023-09-19T00:50:06;16.60;85.80
33903;DHT22;20194;50.950;5.346;2023-09-19T00:52:34;16.60;85.60
33903;DHT22;20194;50.950;5.346;2023-09-19T00:55:05;16.50;86.80
33903;DHT22;20194;50.950;5.346;2023-09-19T00:57:33;16.50;87.10
33903;DHT22;20194;50.950;5.346;2023-09-19T01:00:00;16.50;87.70
33903;DHT22;20194;50.950;5.346;2023-09-19T01:02:31;16.50;87.40
33903;DHT22;20194;50.950;5.346;2023-09-19T01:04:58;16.60;87.00
33903;DHT22;20194;50.950;5.346;2023-09-19T01:07:24;16.60;86.80
33903;DHT22;20194;50.950;5.346;2023-09-19T01:09:50;16.60;87.00
33903;DHT22;20194;50.950;5.346;2023-09-19T01:12:21;16.50;88.10
33903;DHT22;20194;50.950;5.346;2023-09-19T01:15:00;16.50;88.20
33903;DHT22;20194;50.950;5.346;2023-09-19T01:17:34;16.40;90.10
33903;DHT22;20194;50.950;5.346;2023-09-19T01:23:00;16.40;90.00
33903;DHT22;20194;50.950;5.346;2023-09-19T01:28:41;16.50;88.40
33903;DHT22;20194;50.950;5.346;2023-09-19T01:31:09;16.50;88.40
33903;DHT22;20194;50.950;5.346;2023-09-19T01:33:54;16.50;90.00
33903;DHT22;20194;50.950;5.346;2023-09-19T01:36:29;16.30;90.10
33903;DHT22;20194;50.950;5.346;2023-09-19T01:38:57;16.30;90.80
33903;DHT22;20194;50.950;5.346;2023-09-19T01:41:37;16.30;90.70
33903;DHT22;20194;50.950;5.346;2023-09-19T01:44:06;16.30;90.90
33903;DHT22;20194;50.950;5.346;2023-09-19T01:46:36;16.30;91.10
33903;DHT22;20194;50.950;5.346;2023-09-19T01:51:59;16.40;90.40
33903;DHT22;20194;50.950;5.346;2023-09-19T01:54:33;16.40;90.60
33903;DHT22;20194;50.950;5.346;2023-09-19T01:57:13;16.40;90.30
33903;DHT22;20194;50.950;5.346;2023-09-19T01:59:45;16.50;90.20
33903;DHT22;20194;50.950;5.346;2023-09-19T02:02:15;16.50;89.30
33903;DHT22;20194;50.950;5.346;2023-09-19T02:04:43;16.50;89.00
33903;DHT22;20194;50.950;5.346;2023-09-19T02:07:09;16.40;89.10
33903;DHT22;20194;50.950;5.346;2023-09-19T02:09:34;16.30;89.60
33903;DHT22;20194;50.950;5.346;2023-09-19T02:12:05;16.30;90.20
33903;DHT22;20194;50.950;5.346;2023-09-19T02:14:30;16.20;90.20
33903;DHT22;20194;50.950;5.346;2023-09-19T02:16:56;16.20;90.30
33903;DHT22;20194;50.950;5.346;2023-09-19T02:19:23;16.20;90.10
33903;DHT22;20194;50.950;5.346;2023-09-19T02:21:48;16.10;89.60
33903;DHT22;20194;50.950;5.346;2023-09-19T02:24:15;16.10;89.90
33903;DHT22;20194;50.950;5.346;2023-09-19T02:26:41;16.10;89.80
33903;DHT22;20194;50.950;5.346;2023-09-19T02:29:06;16.10;90.00
33903;DHT22;20194;50.950;5.346;2023-09-19T02:31:32;16.10;90.00
33903;DHT22;20194;50.950;5.346;2023-09-19T02:33:58;16.10;90.00
33903;DHT22;20194;50.950;5.346;2023-09-19T02:36:25;16.10;90.00
33903;DHT22;20194;50.950;5.346;2023-09-19T02:38:51;16.10;89.40
33903;DHT22;20194;50.950;5.346;2023-09-19T02:41:17;16.10;89.10
33903;DHT22;20194;50.950;5.346;2023-09-19T02:43:43;16.10;88.90
33903;DHT22;20194;50.950;5.346;2023-09-19T02:46:08;16.00;89.10
33903;DHT22;20194;50.950;5.346;2023-09-19T02:48:34;16.00;89.30
33903;DHT22;20194;50.950;5.346;2023-09-19T02:51:01;16.00;89.80
33903;DHT22;20194;50.950;5.346;2023-09-19T02:53:28;16.00;89.10
33903;DHT22;20194;50.950;5.346;2023-09-19T02:55:56;16.00;88.20
33903;DHT22;20194;50.950;5.346;2023-09-19T02:58:22;16.00;88.40
33903;DHT22;20194;50.950;5.346;2023-09-19T03:00:49;16.00;88.70
33903;DHT22;20194;50.950;5.346;2023-09-19T03:03:17;16.00;86.60
33903;DHT22;20194;50.950;5.346;2023-09-19T03:05:43;15.90;87.80
33903;DHT22;20194;50.950;5.346;2023-09-19T03:08:13;15.80;87.60
33903;DHT22;20194;50.950;5.346;2023-09-19T03:10:40;15.80;88.20
33903;DHT22;20194;50.950;5.346;2023-09-19T03:13:06;15.70;88.30
33903;DHT22;20194;50.950;5.346;2023-09-19T03:15:35;15.80;87.20
33903;DHT22;20194;50.950;5.346;2023-09-19T03:18:04;15.80;86.40
33903;DHT22;20194;50.950;5.346;2023-09-19T03:20:30;15.80;86.80
33903;DHT22;20194;50.950;5.346;2023-09-19T03:22:55;15.70;86.70
33903;DHT22;20194;50.950;5.346;2023-09-19T03:25:22;15.70;87.10
33903;DHT22;20194;50.950;5.346;2023-09-19T03:27:48;15.70;86.90
33903;DHT22;20194;50.950;5.346;2023-09-19T03:30:14;15.80;87.40
33903;DHT22;20194;50.950;5.346;2023-09-19T03:32:46;15.80;86.90
33903;DHT22;20194;50.950;5.346;2023-09-19T03:35:15;15.70;87.60
33903;DHT22;20194;50.950;5.346;2023-09-19T03:37:42;15.60;87.40
33903;DHT22;20194;50.950;5.346;2023-09-19T03:40:10;15.70;88.40
33903;DHT22;20194;50.950;5.346;2023-09-19T03:42:40;15.60;87.50
33903;DHT22;20194;50.950;5.346;2023-09-19T03:45:07;15.80;87.60
33903;DHT22;20194;50.950;5.346;2023-09-19T03:47:36;15.80;86.20
33903;DHT22;20194;50.950;5.346;2023-09-19T03:50:02;15.70;87.00
33903;DHT22;20194;50.950;5.346;2023-09-19T03:52:28;15.70;87.00
33903;DHT22;20194;50.950;5.346;2023-09-19T03:54:54;15.70;86.60
33903;DHT22;20194;50.950;5.346;2023-09-19T03:57:20;15.70;86.20
33903;DHT22;20194;50.950;5.346;2023-09-19T03:59:46;15.70;86.70
33903;DHT22;20194;50.950;5.346;2023-09-19T04:02:13;15.70;87.10
33903;DHT22;20194;50.950;5.346;2023-09-19T04:04:48;15.60;85.30
33903;DHT22;20194;50.950;5.346;2023-09-19T04:07:14;15.60;86.10
33903;DHT22;20194;50.950;5.346;2023-09-19T04:09:39;15.60;85.10
33903;DHT22;20194;50.950;5.346;2023-09-19T04:12:05;15.50;84.80
33903;DHT22;20194;50.950;5.346;2023-09-19T04:14:34;15.50;85.40
33903;DHT22;20194;50.950;5.346;2023-09-19T04:17:00;15.50;84.50
33903;DHT22;20194;50.950;5.346;2023-09-19T04:19:26;15.50;84.90
33903;DHT22;20194;50.950;5.346;2023-09-19T04:21:52;15.50;83.50
33903;DHT22;20194;50.950;5.346;2023-09-19T04:24:18;15.60;83.50
33903;DHT22;20194;50.950;5.346;2023-09-19T04:26:45;15.60;83.10
33903;DHT22;20194;50.950;5.346;2023-09-19T04:29:10;15.70;83.40
33903;DHT22;20194;50.950;5.346;2023-09-19T04:31:38;15.70;83.10
33903;DHT22;20194;50.950;5.346;2023-09-19T04:34:08;15.80;83.50
33903;DHT22;20194;50.950;5.346;2023-09-19T04:36:35;15.80;82.40
33903;DHT22;20194;50.950;5.346;2023-09-19T04:39:05;15.80;82.50
33903;DHT22;20194;50.950;5.346;2023-09-19T04:41:31;15.80;83.20
33903;DHT22;20194;50.950;5.346;2023-09-19T04:43:56;15.90;82.20
33903;DHT22;20194;50.950;5.346;2023-09-19T04:46:22;15.90;82.80
33903;DHT22;20194;50.950;5.346;2023-09-19T04:48:48;15.80;83.70
33903;DHT22;20194;50.950;5.346;2023-09-19T04:51:13;15.70;85.50
33903;DHT22;20194;50.950;5.346;2023-09-19T04:53:40;15.60;86.90
33903;DHT22;20194;50.950;5.346;2023-09-19T04:56:06;15.60;88.50
33903;DHT22;20194;50.950;5.346;2023-09-19T04:58:34;15.50;88.70
33903;DHT22;20194;50.950;5.346;2023-09-19T05:00:59;15.60;89.10
33903;DHT22;20194;50.950;5.346;2023-09-19T05:03:29;15.50;90.30
33903;DHT22;20194;50.950;5.346;2023-09-19T05:05:55;15.50;90.10
33903;DHT22;20194;50.950;5.346;2023-09-19T05:08:21;15.60;90.10
33903;DHT22;20194;50.950;5.346;2023-09-19T05:10:48;15.50;90.60
33903;DHT22;20194;50.950;5.346;2023-09-19T05:13:14;15.50;91.00
33903;DHT22;20194;50.950;5.346;2023-09-19T05:15:40;15.40;91.40
33903;DHT22;20194;50.950;5.346;2023-09-19T05:18:06;15.40;91.80
33903;DHT22;20194;50.950;5.346;2023-09-19T05:20:32;15.40;91.80
33903;DHT22;20194;50.950;5.346;2023-09-19T05:23:02;15.40;91.80
33903;DHT22;20194;50.950;5.346;2023-09-19T05:25:30;15.40;91.30
33903;DHT22;20194;50.950;5.346;2023-09-19T05:27:57;15.50;91.30
33903;DHT22;20194;50.950;5.346;2023-09-19T05:30:23;15.40;91.30
33903;DHT22;20194;50.950;5.346;2023-09-19T05:32:49;15.30;91.70
33903;DHT22;20194;50.950;5.346;2023-09-19T05:35:16;15.30;91.80
33903;DHT22;20194;50.950;5.346;2023-09-19T05:37:42;15.30;91.90
33903;DHT22;20194;50.950;5.346;2023-09-19T05:40:09;15.30;91.80
33903;DHT22;20194;50.950;5.346;2023-09-19T05:42:38;15.30;91.50
33903;DHT22;20194;50.950;5.346;2023-09-19T05:45:05;15.30;91.90
33903;DHT22;20194;50.950;5.346;2023-09-19T05:47:32;15.30;91.90
33903;DHT22;20194;50.950;5.346;2023-09-19T05:49:57;15.30;91.60
33903;DHT22;20194;50.950;5.346;2023-09-19T05:52:25;15.30;91.40
33903;DHT22;20194;50.950;5.346;2023-09-19T05:54:50;15.20;92.20
33903;DHT22;20194;50.950;5.346;2023-09-19T05:57:16;15.20;92.10
33903;DHT22;20194;50.950;5.346;2023-09-19T05:59:42;15.20;91.90
33903;DHT22;20194;50.950;5.346;2023-09-19T06:02:08;15.30;91.60
33903;DHT22;20194;50.950;5.346;2023-09-19T06:04:35;15.20;91.80
33903;DHT22;20194;50.950;5.346;2023-09-19T06:07:01;15.40;91.50
33903;DHT22;20194;50.950;5.346;2023-09-19T06:09:29;15.40;91.60
33903;DHT22;20194;50.950;5.346;2023-09-19T06:11:57;15.40;91.50
33903;DHT22;20194;50.950;5.346;2023-09-19T06:14:23;15.40;91.30
33903;DHT22;20194;50.950;5.346;2023-09-19T06:16:50;15.30;91.60
33903;DHT22;20194;50.950;5.346;2023-09-19T06:19:16;15.30;91.60
33903;DHT22;20194;50.950;5.346;2023-09-19T06:21:42;15.40;91.60
33903;DHT22;20194;50.950;5.346;2023-09-19T06:24:09;15.40;91.70
33903;DHT22;20194;50.950;5.346;2023-09-19T06:26:34;15.50;91.20
33903;DHT22;20194;50.950;5.346;2023-09-19T06:29:00;15.50;91.10
33903;DHT22;20194;50.950;5.346;2023-09-19T06:31:26;15.50;91.20
33903;DHT22;20194;50.950;5.346;2023-09-19T06:33:52;15.50;91.20
33903;DHT22;20194;50.950;5.346;2023-09-19T06:36:18;15.50;91.00
33903;DHT22;20194;50.950;5.346;2023-09-19T06:38:44;15.50;90.80
33903;DHT22;20194;50.950;5.346;2023-09-19T06:41:10;15.60;90.80
33903;DHT22;20194;50.950;5.346;2023-09-19T06:43:36;15.50;90.80
33903;DHT22;20194;50.950;5.346;2023-09-19T06:46:02;15.50;91.00
33903;DHT22;20194;50.950;5.346;2023-09-19T06:48:28;15.50;91.00
33903;DHT22;20194;50.950;5.346;2023-09-19T06:50:59;15.60;91.20
33903;DHT22;20194;50.950;5.346;2023-09-19T06:53:33;15.70;90.80
33903;DHT22;20194;50.950;5.346;2023-09-19T06:56:00;15.70;90.40
33903;DHT22;20194;50.950;5.346;2023-09-19T06:58:26;15.70;90.10
33903;DHT22;20194;50.950;5.346;2023-09-19T07:00:52;15.70;90.40
33903;DHT22;20194;50.950;5.346;2023-09-19T07:03:19;15.70;90.20
33903;DHT22;20194;50.950;5.346;2023-09-19T07:05:48;15.80;90.10
33903;DHT22;20194;50.950;5.346;2023-09-19T07:08:14;16.00;89.90
33903;DHT22;20194;50.950;5.346;2023-09-19T07:10:41;16.10;88.50
33903;DHT22;20194;50.950;5.346;2023-09-19T07:13:08;16.10;86.70
33903;DHT22;20194;50.950;5.346;2023-09-19T07:15:36;16.20;86.70
33903;DHT22;20194;50.950;5.346;2023-09-19T07:18:05;16.20;86.20
33903;DHT22;20194;50.950;5.346;2023-09-19T07:20:32;16.10;85.90
33903;DHT22;20194;50.950;5.346;2023-09-19T07:23:01;16.20;86.20
33903;DHT22;20194;50.950;5.346;2023-09-19T07:25:27;16.30;84.50
33903;DHT22;20194;50.950;5.346;2023-09-19T07:27:55;16.30;85.20
33903;DHT22;20194;50.950;5.346;2023-09-19T07:30:21;16.40;84.30
33903;DHT22;20194;50.950;5.346;2023-09-19T07:32:48;16.30;83.30
33903;DHT22;20194;50.950;5.346;2023-09-19T07:35:13;16.30;83.10
33903;DHT22;20194;50.950;5.346;2023-09-19T07:37:40;16.30;84.40
33903;DHT22;20194;50.950;5.346;2023-09-19T07:40:06;16.30;83.40
33903;DHT22;20194;50.950;5.346;2023-09-19T07:42:33;16.40;82.60
33903;DHT22;20194;50.950;5.346;2023-09-19T07:45:02;16.60;82.40
33903;DHT22;20194;50.950;5.346;2023-09-19T07:47:28;16.60;80.40
33903;DHT22;20194;50.950;5.346;2023-09-19T07:49:55;16.70;80.50
33903;DHT22;20194;50.950;5.346;2023-09-19T07:52:21;16.60;80.40
33903;DHT22;20194;50.950;5.346;2023-09-19T07:54:48;16.60;80.40
33903;DHT22;20194;50.950;5.346;2023-09-19T07:57:15;16.70;80.30
33903;DHT22;20194;50.950;5.346;2023-09-19T07:59:41;16.80;80.20
33903;DHT22;20194;50.950;5.346;2023-09-19T08:02:07;16.90;78.50
33903;DHT22;20194;50.950;5.346;2023-09-19T08:04:43;16.90;77.00
33903;DHT22;20194;50.950;5.346;2023-09-19T08:07:11;17.00;77.60
33903;DHT22;20194;50.950;5.346;2023-09-19T08:09:36;17.00;76.70
33903;DHT22;20194;50.950;5.346;2023-09-19T08:12:04;17.20;76.00
33903;DHT22;20194;50.950;5.346;2023-09-19T08:14:30;17.30;74.40
33903;DHT22;20194;50.950;5.346;2023-09-19T08:16:57;17.40;73.50
33903;DHT22;20194;50.950;5.346;2023-09-19T08:19:24;17.50;73.50
33903;DHT22;20194;50.950;5.346;2023-09-19T08:21:55;17.50;72.00
33903;DHT22;20194;50.950;5.346;2023-09-19T08:24:27;17.50;71.00
33903;DHT22;20194;50.950;5.346;2023-09-19T08:26:54;17.50;70.90
33903;DHT22;20194;50.950;5.346;2023-09-19T08:29:20;17.50;72.50
33903;DHT22;20194;50.950;5.346;2023-09-19T08:31:46;17.60;69.60
33903;DHT22;20194;50.950;5.346;2023-09-19T08:34:15;17.60;69.00
33903;DHT22;20194;50.950;5.346;2023-09-19T08:36:41;17.60;69.00
33903;DHT22;20194;50.950;5.346;2023-09-19T08:39:08;17.80;68.20
33903;DHT22;20194;50.950;5.346;2023-09-19T08:41:34;17.80;66.70
33903;DHT22;20194;50.950;5.346;2023-09-19T08:44:00;17.90;66.40
33903;DHT22;20194;50.950;5.346;2023-09-19T08:46:30;18.00;66.00
33903;DHT22;20194;50.950;5.346;2023-09-19T08:49:03;18.20;64.80
33903;DHT22;20194;50.950;5.346;2023-09-19T08:51:39;18.20;63.20
33903;DHT22;20194;50.950;5.346;2023-09-19T08:54:07;18.10;63.00
33903;DHT22;20194;50.950;5.346;2023-09-19T08:56:33;18.10;62.80
33903;DHT22;20194;50.950;5.346;2023-09-19T08:59:07;18.20;64.10
33903;DHT22;20194;50.950;5.346;2023-09-19T09:01:38;18.30;60.10
33903;DHT22;20194;50.950;5.346;2023-09-19T09:04:08;18.30;60.30
33903;DHT22;20194;50.950;5.346;2023-09-19T09:06:34;18.40;58.10
33903;DHT22;20194;50.950;5.346;2023-09-19T09:09:02;18.50;57.70
33903;DHT22;20194;50.950;5.346;2023-09-19T09:11:33;18.50;57.10
33903;DHT22;20194;50.950;5.346;2023-09-19T09:13:59;18.50;57.20
33903;DHT22;20194;50.950;5.346;2023-09-19T09:16:24;18.60;56.60
33903;DHT22;20194;50.950;5.346;2023-09-19T09:18:51;18.60;55.60
33903;DHT22;20194;50.950;5.346;2023-09-19T09:21:20;18.70;55.10
33903;DHT22;20194;50.950;5.346;2023-09-19T09:23:48;18.80;53.80
33903;DHT22;20194;50.950;5.346;2023-09-19T09:26:15;18.70;51.50
33903;DHT22;20194;50.950;5.346;2023-09-19T09:28:45;18.80;50.60
33903;DHT22;20194;50.950;5.346;2023-09-19T09:31:24;18.90;50.20
33903;DHT22;20194;50.950;5.346;2023-09-19T09:33:54;19.00;50.00
33903;DHT22;20194;50.950;5.346;2023-09-19T09:36:37;19.10;49.70
33903;DHT22;20194;50.950;5.346;2023-09-19T09:39:04;19.10;47.20
33903;DHT22;20194;50.950;5.346;2023-09-19T09:41:50;19.20;48.90
33903;DHT22;20194;50.950;5.346;2023-09-19T09:44:17;19.00;47.60
33903;DHT22;20194;50.950;5.346;2023-09-19T09:46:45;19.20;45.80
33903;DHT22;20194;50.950;5.346;2023-09-19T09:49:27;19.10;45.10
33903;DHT22;20194;50.950;5.346;2023-09-19T09:52:06;19.30;44.40
33903;DHT22;20194;50.950;5.346;2023-09-19T09:54:34;19.10;44.40
33903;DHT22;20194;50.950;5.346;2023-09-19T09:57:04;19.10;44.50
33903;DHT22;20194;50.950;5.346;2023-09-19T09:59:58;19.10;45.40
33903;DHT22;20194;50.950;5.346;2023-09-19T10:02:40;19.10;43.80
33903;DHT22;20194;50.950;5.346;2023-09-19T10:05:17;19.40;45.10
33903;DHT22;20194;50.950;5.346;2023-09-19T10:07:51;19.50;45.10
33903;DHT22;20194;50.950;5.346;2023-09-19T10:10:40;19.50;43.30
33903;DHT22;20194;50.950;5.346;2023-09-19T10:13:08;19.30;38.10
33903;DHT22;20194;50.950;5.346;2023-09-19T10:15:38;19.30;38.90
33903;DHT22;20194;50.950;5.346;2023-09-19T10:18:07;19.20;40.40
33903;DHT22;20194;50.950;5.346;2023-09-19T10:20:37;19.30;41.90
33903;DHT22;20194;50.950;5.346;2023-09-19T10:23:09;19.50;42.20
33903;DHT22;20194;50.950;5.346;2023-09-19T10:25:41;19.50;38.10
33903;DHT22;20194;50.950;5.346;2023-09-19T10:28:11;19.40;35.10
33903;DHT22;20194;50.950;5.346;2023-09-19T10:30:38;19.50;33.90
33903;DHT22;20194;50.950;5.346;2023-09-19T10:33:11;19.60;36.00
33903;DHT22;20194;50.950;5.346;2023-09-19T10:35:39;19.70;31.80
33903;DHT22;20194;50.950;5.346;2023-09-19T10:38:13;19.60;29.40
33903;DHT22;20194;50.950;5.346;2023-09-19T10:40:40;19.70;29.90
33903;DHT22;20194;50.950;5.346;2023-09-19T10:43:18;19.70;29.10
33903;DHT22;20194;50.950;5.346;2023-09-19T10:45:45;19.90;28.50
33903;DHT22;20194;50.950;5.346;2023-09-19T10:48:12;20.00;25.30
33903;DHT22;20194;50.950;5.346;2023-09-19T10:50:48;20.10;26.20
33903;DHT22;20194;50.950;5.346;2023-09-19T10:53:16;20.30;24.80
33903;DHT22;20194;50.950;5.346;2023-09-19T10:55:50;20.40;24.60
33903;DHT22;20194;50.950;5.346;2023-09-19T10:58:27;20.50;24.60
33903;DHT22;20194;50.950;5.346;2023-09-19T11:00:58;20.60;22.40
33903;DHT22;20194;50.950;5.346;2023-09-19T11:03:28;20.60;20.90
33903;DHT22;20194;50.950;5.346;2023-09-19T11:09:03;20.90;18.10
33903;DHT22;20194;50.950;5.346;2023-09-19T11:11:48;21.10;15.40
33903;DHT22;20194;50.950;5.346;2023-09-19T11:30:33;21.20;11.90
33903;DHT22;20194;50.950;5.346;2023-09-19T11:36:12;21.30;7.80
33903;DHT22;20194;50.950;5.346;2023-09-19T11:49:29;21.50;11.00
33903;DHT22;20194;50.950;5.346;2023-09-19T11:51:56;21.40;8.50
33903;DHT22;20194;50.950;5.346;2023-09-19T11:54:22;21.50;11.50
33903;DHT22;20194;50.950;5.346;2023-09-19T11:56:51;21.40;11.10
33903;DHT22;20194;50.950;5.346;2023-09-19T11:59:24;21.10;10.60
33903;DHT22;20194;50.950;5.346;2023-09-19T12:01:58;21.00;17.50
33903;DHT22;20194;50.950;5.346;2023-09-19T12:04:37;21.00;19.20
33903;DHT22;20194;50.950;5.346;2023-09-19T12:07:11;20.90;19.50
33903;DHT22;20194;50.950;5.346;2023-09-19T12:09:46;20.90;19.10
33903;DHT22;20194;50.950;5.346;2023-09-19T12:12:26;21.00;18.30
33903;DHT22;20194;50.950;5.346;2023-09-19T12:14:59;21.10;20.50
33903;DHT22;20194;50.950;5.346;2023-09-19T12:17:40;21.20;19.10
33903;DHT22;20194;50.950;5.346;2023-09-19T12:20:08;21.10;19.00
33903;DHT22;20194;50.950;5.346;2023-09-19T12:22:46;21.10;21.50
33903;DHT22;20194;50.950;5.346;2023-09-19T12:25:14;21.10;19.30
33903;DHT22;20194;50.950;5.346;2023-09-19T12:27:46;21.10;17.10
33903;DHT22;20194;50.950;5.346;2023-09-19T12:30:13;20.90;21.90
33903;DHT22;20194;50.950;5.346;2023-09-19T12:32:43;20.70;22.30
33903;DHT22;20194;50.950;5.346;2023-09-19T12:35:10;20.90;21.50
33903;DHT22;20194;50.950;5.346;2023-09-19T12:37:52;20.80;19.90
33903;DHT22;20194;50.950;5.346;2023-09-19T12:40:21;20.80;23.40
33903;DHT22;20194;50.950;5.346;2023-09-19T12:42:50;20.70;23.70
33903;DHT22;20194;50.950;5.346;2023-09-19T12:45:18;20.80;25.20
33903;DHT22;20194;50.950;5.346;2023-09-19T12:51:01;20.80;17.60
33903;DHT22;20194;50.950;5.346;2023-09-19T12:53:29;20.90;20.20
33903;DHT22;20194;50.950;5.346;2023-09-19T12:55:58;20.90;20.10
33903;DHT22;20194;50.950;5.346;2023-09-19T12:58:24;20.90;23.40
33903;DHT22;20194;50.950;5.346;2023-09-19T13:00:51;20.70;23.70
33903;DHT22;20194;50.950;5.346;2023-09-19T13:05:57;20.60;26.50
33903;DHT22;20194;50.950;5.346;2023-09-19T13:08:26;20.70;28.30
33903;DHT22;20194;50.950;5.346;2023-09-19T13:13:25;20.80;28.70
33903;DHT22;20194;50.950;5.346;2023-09-19T13:15:53;20.80;23.80
33903;DHT22;20194;50.950;5.346;2023-09-19T13:18:19;20.70;23.20
33903;DHT22;20194;50.950;5.346;2023-09-19T13:21:12;20.60;23.90
33903;DHT22;20194;50.950;5.346;2023-09-19T13:23:52;20.50;25.40
33903;DHT22;20194;50.950;5.346;2023-09-19T13:26:20;20.60;28.40
33903;DHT22;20194;50.950;5.346;2023-09-19T13:28:45;20.60;26.30
33903;DHT22;20194;50.950;5.346;2023-09-19T13:31:13;20.60;28.50
33903;DHT22;20194;50.950;5.346;2023-09-19T13:33:47;20.60;26.90
33903;DHT22;20194;50.950;5.346;2023-09-19T13:36:13;20.70;27.00
33903;DHT22;20194;50.950;5.346;2023-09-19T13:38:43;20.60;25.10
33903;DHT22;20194;50.950;5.346;2023-09-19T13:41:12;20.50;27.40
33903;DHT22;20194;50.950;5.346;2023-09-19T13:43:38;20.50;28.60
33903;DHT22;20194;50.950;5.346;2023-09-19T13:46:04;20.50;27.00
33903;DHT22;20194;50.950;5.346;2023-09-19T13:48:33;20.60;29.60
33903;DHT22;20194;50.950;5.346;2023-09-19T13:51:01;20.70;29.00
33903;DHT22;20194;50.950;5.346;2023-09-19T13:53:27;20.70;26.50
33903;DHT22;20194;50.950;5.346;2023-09-19T13:55:53;20.60;27.80
33903;DHT22;20194;50.950;5.346;2023-09-19T13:58:20;20.60;30.90
33903;DHT22;20194;50.950;5.346;2023-09-19T14:00:48;20.50;29.20
33903;DHT22;20194;50.950;5.346;2023-09-19T14:03:14;20.40;32.20
33903;DHT22;20194;50.950;5.346;2023-09-19T14:05:40;20.40;32.30
33903;DHT22;20194;50.950;5.346;2023-09-19T14:08:05;20.40;34.30
33903;DHT22;20194;50.950;5.346;2023-09-19T14:10:31;20.30;31.30
33903;DHT22;20194;50.950;5.346;2023-09-19T14:12:57;20.30;32.00
33903;DHT22;20194;50.950;5.346;2023-09-19T14:15:25;20.20;32.10
33903;DHT22;20194;50.950;5.346;2023-09-19T14:17:58;20.10;33.00
33903;DHT22;20194;50.950;5.346;2023-09-19T14:20:24;20.10;33.70
33903;DHT22;20194;50.950;5.346;2023-09-19T14:22:54;20.10;34.10
33903;DHT22;20194;50.950;5.346;2023-09-19T14:25:20;20.10;32.50
33903;DHT22;20194;50.950;5.346;2023-09-19T14:27:47;20.10;34.60
33903;DHT22;20194;50.950;5.346;2023-09-19T14:30:14;20.10;35.20
33903;DHT22;20194;50.950;5.346;2023-09-19T14:32:40;20.10;38.00
33903;DHT22;20194;50.950;5.346;2023-09-19T14:35:07;20.00;37.20
33903;DHT22;20194;50.950;5.346;2023-09-19T14:37:33;20.00;37.80
33903;DHT22;20194;50.950;5.346;2023-09-19T14:39:58;20.00;38.40
33903;DHT22;20194;50.950;5.346;2023-09-19T14:42:24;20.10;39.00
33903;DHT22;20194;50.950;5.346;2023-09-19T14:44:50;20.20;36.60
33903;DHT22;20194;50.950;5.346;2023-09-19T14:47:15;20.20;37.00
33903;DHT22;20194;50.950;5.346;2023-09-19T14:49:42;20.10;36.30
33903;DHT22;20194;50.950;5.346;2023-09-19T14:52:09;20.20;37.20
33903;DHT22;20194;50.950;5.346;2023-09-19T14:54:36;20.30;35.50
33903;DHT22;20194;50.950;5.346;2023-09-19T14:57:03;20.30;37.20
33903;DHT22;20194;50.950;5.346;2023-09-19T14:59:34;20.30;36.80
33903;DHT22;20194;50.950;5.346;2023-09-19T15:02:06;20.30;36.90
33903;DHT22;20194;50.950;5.346;2023-09-19T15:04:32;20.30;37.20
33903;DHT22;20194;50.950;5.346;2023-09-19T15:06:59;20.20;35.50
33903;DHT22;20194;50.950;5.346;2023-09-19T15:09:25;20.20;36.90
33903;DHT22;20194;50.950;5.346;2023-09-19T15:11:52;20.20;36.40
33903;DHT22;20194;50.950;5.346;2023-09-19T15:14:18;20.20;36.90
33903;DHT22;20194;50.950;5.346;2023-09-19T15:16:44;20.20;37.50
33903;DHT22;20194;50.950;5.346;2023-09-19T15:19:10;20.30;37.50
33903;DHT22;20194;50.950;5.346;2023-09-19T15:21:36;20.20;38.50
33903;DHT22;20194;50.950;5.346;2023-09-19T15:24:03;20.20;38.30
33903;DHT22;20194;50.950;5.346;2023-09-19T15:26:29;20.30;38.20
33903;DHT22;20194;50.950;5.346;2023-09-19T15:28:56;20.30;39.10
33903;DHT22;20194;50.950;5.346;2023-09-19T15:31:22;20.30;38.30
33903;DHT22;20194;50.950;5.346;2023-09-19T15:33:48;20.20;37.20
33903;DHT22;20194;50.950;5.346;2023-09-19T15:36:15;20.20;36.00
33903;DHT22;20194;50.950;5.346;2023-09-19T15:41:19;20.10;38.00
33903;DHT22;20194;50.950;5.346;2023-09-19T15:43:46;20.20;37.70
33903;DHT22;20194;50.950;5.346;2023-09-19T15:46:11;20.10;38.20
33903;DHT22;20194;50.950;5.346;2023-09-19T15:48:39;20.10;38.90
33903;DHT22;20194;50.950;5.346;2023-09-19T15:51:04;20.00;39.50
33903;DHT22;20194;50.950;5.346;2023-09-19T15:53:45;20.00;40.30
33903;DHT22;20194;50.950;5.346;2023-09-19T15:56:12;19.90;41.30
33903;DHT22;20194;50.950;5.346;2023-09-19T15:58:43;19.90;41.90
33903;DHT22;20194;50.950;5.346;2023-09-19T16:01:09;19.80;43.40
33903;DHT22;20194;50.950;5.346;2023-09-19T16:03:36;19.80;42.40
33903;DHT22;20194;50.950;5.346;2023-09-19T16:06:07;19.80;42.90
33903;DHT22;20194;50.950;5.346;2023-09-19T16:08:32;19.70;44.20
33903;DHT22;20194;50.950;5.346;2023-09-19T16:11:00;19.80;43.30
33903;DHT22;20194;50.950;5.346;2023-09-19T16:13:26;19.80;42.70
33903;DHT22;20194;50.950;5.346;2023-09-19T16:15:54;19.70;43.60
33903;DHT22;20194;50.950;5.346;2023-09-19T16:18:19;19.70;43.70
33903;DHT22;20194;50.950;5.346;2023-09-19T16:20:46;19.70;44.10
33903;DHT22;20194;50.950;5.346;2023-09-19T16:23:12;19.70;45.00
33903;DHT22;20194;50.950;5.346;2023-09-19T16:25:37;19.60;44.80
33903;DHT22;20194;50.950;5.346;2023-09-19T16:28:03;19.50;46.20
33903;DHT22;20194;50.950;5.346;2023-09-19T16:30:32;19.50;46.30